createdAt,value
2023-04-16T00:00:49.353Z,8.90
2023-04-16T00:01:51.423Z,8.90
2023-04-16T00:02:53.842Z,9.00
2023-04-16T00:03:56.004Z,9.00
2023-04-16T00:04:58.074Z,9.00
2023-04-16T00:05:59.565Z,8.90
2023-04-16T00:07:01.235Z,9.00
2023-04-16T00:08:02.950Z,9.00
2023-04-16T00:09:04.583Z,9.00
2023-04-16T00:10:06.971Z,9.00
2023-04-16T00:11:08.537Z,9.00
2023-04-16T00:12:09.982Z,9.00
2023-04-16T00:13:11.574Z,9.00
2023-04-16T00:14:13.126Z,9.00
2023-04-16T00:15:14.727Z,9.00
2023-04-16T00:16:16.450Z,9.00
2023-04-16T00:17:18.275Z,9.00
2023-04-16T00:18:21.417Z,9.00
2023-04-16T00:19:23.029Z,9.00
2023-04-16T00:20:24.793Z,9.00
2023-04-16T00:21:26.672Z,9.00
2023-04-16T00:22:28.284Z,8.90
2023-04-16T00:23:30.048Z,9.00
2023-04-16T00:24:31.479Z,9.00
2023-04-16T00:25:32.986Z,8.90
2023-04-16T00:26:34.423Z,8.90
2023-04-16T00:27:36.227Z,8.90
2023-04-16T00:28:37.787Z,9.00
2023-04-16T00:29:39.465Z,9.00
2023-04-16T00:30:42.107Z,8.90
2023-04-16T00:31:43.729Z,8.90
2023-04-16T00:32:45.889Z,8.90
2023-04-16T00:33:47.408Z,8.90
2023-04-16T00:34:49.026Z,8.90
2023-04-16T00:35:51.225Z,8.90
2023-04-16T00:36:52.787Z,8.90
2023-04-16T00:37:54.180Z,8.90
2023-04-16T00:38:56.824Z,8.90
2023-04-16T00:39:58.914Z,8.90
2023-04-16T00:41:00.500Z,8.90
2023-04-16T00:42:01.969Z,8.90
2023-04-16T00:43:03.429Z,8.90
2023-04-16T00:44:05.052Z,8.90
2023-04-16T00:45:07.072Z,8.80
2023-04-16T00:46:09.048Z,8.90
2023-04-16T00:47:11.577Z,8.90
2023-04-16T00:48:13.012Z,8.90
2023-04-16T00:49:15.048Z,8.90
2023-04-16T00:50:17.835Z,8.90
2023-04-16T00:51:22.942Z,8.90
2023-04-16T00:52:25.997Z,8.90
2023-04-16T00:53:28.000Z,8.90
2023-04-16T00:54:30.481Z,8.80
2023-04-16T00:55:32.097Z,8.80
2023-04-16T00:56:35.496Z,8.90
2023-04-16T00:57:36.869Z,8.90
2023-04-16T00:58:39.400Z,8.90
2023-04-16T00:59:42.171Z,8.90
2023-04-16T01:00:43.682Z,9.00
2023-04-16T01:01:45.188Z,8.90
2023-04-16T01:02:46.756Z,8.90
2023-04-16T01:03:49.600Z,8.90
2023-04-16T01:04:51.740Z,8.90
2023-04-16T01:05:53.348Z,8.90
2023-04-16T01:06:55.522Z,8.90
2023-04-16T01:08:02.651Z,8.90
2023-04-16T01:09:05.285Z,8.80
2023-04-16T01:10:07.327Z,8.80
2023-04-16T01:11:09.891Z,8.80
2023-04-16T01:12:11.414Z,8.80
2023-04-16T01:13:13.466Z,8.90
2023-04-16T01:14:15.344Z,8.80
2023-04-16T01:15:16.897Z,8.80
2023-04-16T01:16:18.478Z,8.90
2023-04-16T01:17:20.506Z,8.90
2023-04-16T01:18:22.990Z,8.90
2023-04-16T01:19:24.563Z,8.90
2023-04-16T01:20:26.520Z,8.80
2023-04-16T01:21:28.248Z,8.80
2023-04-16T01:22:30.009Z,8.90
2023-04-16T01:23:31.984Z,8.90
2023-04-16T01:24:35.797Z,8.90
2023-04-16T01:25:37.729Z,8.90
2023-04-16T01:26:39.294Z,8.90
2023-04-16T01:27:40.735Z,8.90
2023-04-16T01:28:43.281Z,8.90
2023-04-16T01:29:44.735Z,8.90
2023-04-16T01:30:46.346Z,8.80
2023-04-16T01:32:06.313Z,8.90
2023-04-16T01:33:11.707Z,8.80
2023-04-16T01:34:13.473Z,8.90
2023-04-16T01:35:14.904Z,8.80
2023-04-16T01:36:16.589Z,8.80
2023-04-16T01:37:20.098Z,8.90
2023-04-16T01:38:22.670Z,8.90
2023-04-16T01:39:24.637Z,8.90
2023-04-16T01:40:26.189Z,8.80
2023-04-16T01:41:28.538Z,8.90
2023-04-16T01:42:30.104Z,8.90
2023-04-16T01:43:31.864Z,8.80
2023-04-16T01:44:36.852Z,8.90
2023-04-16T01:45:38.389Z,8.90
2023-04-16T01:46:40.224Z,8.90
2023-04-16T01:47:41.877Z,8.90
2023-04-16T01:48:43.906Z,8.80
2023-04-16T01:49:48.132Z,8.80
2023-04-16T01:50:49.654Z,8.80
2023-04-16T01:51:51.670Z,8.80
2023-04-16T01:52:53.212Z,8.80
2023-04-16T01:53:55.925Z,8.80
2023-04-16T01:54:57.616Z,8.80
2023-04-16T01:55:59.188Z,8.80
2023-04-16T01:57:01.725Z,8.80
2023-04-16T01:58:03.489Z,8.80
2023-04-16T01:59:08.746Z,8.80
2023-04-16T02:00:14.672Z,8.80
2023-04-16T02:01:21.917Z,8.80
2023-04-16T02:02:28.346Z,8.80
2023-04-16T02:03:31.310Z,8.80
2023-04-16T02:04:33.119Z,8.80
2023-04-16T02:05:34.740Z,8.80
2023-04-16T02:06:36.211Z,8.80
2023-04-16T02:07:37.873Z,8.80
2023-04-16T02:08:39.351Z,8.80
2023-04-16T02:09:41.503Z,8.80
2023-04-16T02:10:46.757Z,8.80
2023-04-16T02:11:48.273Z,8.80
2023-04-16T02:12:51.055Z,8.80
2023-04-16T02:13:52.568Z,8.80
2023-04-16T02:14:54.703Z,8.80
2023-04-16T02:15:57.288Z,8.80
2023-04-16T02:17:11.007Z,8.80
2023-04-16T02:18:15.157Z,8.70
2023-04-16T02:19:16.826Z,8.70
2023-04-16T02:20:18.597Z,8.70
2023-04-16T02:21:28.483Z,8.80
2023-04-16T02:22:30.234Z,8.80
2023-04-16T02:23:31.898Z,8.80
2023-04-16T02:24:34.536Z,8.80
2023-04-16T02:25:42.048Z,8.80
2023-04-16T02:26:45.485Z,8.80
2023-04-16T02:27:50.663Z,8.80
2023-04-16T02:29:02.208Z,8.80
2023-04-16T02:30:11.920Z,8.80
2023-04-16T02:31:14.907Z,8.80
2023-04-16T02:32:20.304Z,8.80
2023-04-16T02:33:22.641Z,8.80
2023-04-16T02:34:31.158Z,8.80
2023-04-16T02:35:33.407Z,8.80
2023-04-16T02:36:35.054Z,8.80
2023-04-16T02:37:36.636Z,8.80
2023-04-16T02:38:38.581Z,8.80
2023-04-16T02:39:40.828Z,8.80
2023-04-16T02:40:42.295Z,8.80
2023-04-16T02:41:43.771Z,8.80
2023-04-16T02:42:45.382Z,8.80
2023-04-16T02:43:47.029Z,8.80
2023-04-16T02:44:49.067Z,8.80
2023-04-16T02:45:50.657Z,8.80
2023-04-16T02:46:52.756Z,8.80
2023-04-16T02:47:54.316Z,8.80
2023-04-16T02:48:55.910Z,8.80
2023-04-16T02:49:57.443Z,8.80
2023-04-16T02:50:59.003Z,8.80
2023-04-16T02:52:00.825Z,8.80
2023-04-16T02:53:02.305Z,8.80
2023-04-16T02:54:03.785Z,8.80
2023-04-16T02:55:06.983Z,8.80
2023-04-16T02:56:08.645Z,8.80
2023-04-16T02:57:10.486Z,8.80
2023-04-16T02:58:12.027Z,8.80
2023-04-16T02:59:13.672Z,8.80
2023-04-16T03:00:15.525Z,8.70
2023-04-16T03:01:18.315Z,8.70
2023-04-16T03:02:19.972Z,8.70
2023-04-16T03:03:21.800Z,8.70
2023-04-16T03:04:23.495Z,8.70
2023-04-16T03:05:25.416Z,8.70
2023-04-16T03:06:27.044Z,8.70
2023-04-16T03:07:28.694Z,8.70
2023-04-16T03:08:30.512Z,8.70
2023-04-16T03:09:31.904Z,8.70
2023-04-16T03:10:35.207Z,8.70
2023-04-16T03:11:36.606Z,8.70
2023-04-16T03:12:39.160Z,8.70
2023-04-16T03:13:41.618Z,8.70
2023-04-16T03:14:43.260Z,8.70
2023-04-16T03:15:49.821Z,8.70
2023-04-16T03:16:51.983Z,8.70
2023-04-16T03:17:53.983Z,8.70
2023-04-16T03:18:55.682Z,8.70
2023-04-16T03:19:57.203Z,8.70
2023-04-16T03:20:58.639Z,8.70
2023-04-16T03:22:00.640Z,8.70
2023-04-16T03:23:02.825Z,8.70
2023-04-16T03:24:04.218Z,8.70
2023-04-16T03:25:06.578Z,8.70
2023-04-16T03:26:08.120Z,8.70
2023-04-16T03:27:09.610Z,8.70
2023-04-16T03:28:11.217Z,8.70
2023-04-16T03:29:13.785Z,8.70
2023-04-16T03:30:16.392Z,8.70
2023-04-16T03:31:18.412Z,8.70
2023-04-16T03:32:20.831Z,8.70
2023-04-16T03:33:22.810Z,8.70
2023-04-16T03:34:25.888Z,8.70
2023-04-16T03:35:27.432Z,8.70
2023-04-16T03:36:28.926Z,8.70
2023-04-16T03:37:32.026Z,8.70
2023-04-16T03:38:33.701Z,8.70
2023-04-16T03:39:35.539Z,8.70
2023-04-16T03:40:37.044Z,8.70
2023-04-16T03:41:38.555Z,8.70
2023-04-16T03:42:40.034Z,8.70
2023-04-16T03:43:41.510Z,8.70
2023-04-16T03:44:45.297Z,8.80
2023-04-16T03:45:47.531Z,8.80
2023-04-16T03:46:49.092Z,8.80
2023-04-16T03:47:52.875Z,8.80
2023-04-16T03:48:57.070Z,8.80
2023-04-16T03:49:58.642Z,8.70
2023-04-16T03:51:00.098Z,8.70
2023-04-16T03:52:01.893Z,8.70
2023-04-16T03:53:03.464Z,8.70
2023-04-16T03:54:05.209Z,8.70
2023-04-16T03:55:08.115Z,8.70
2023-04-16T03:56:09.884Z,8.70
2023-04-16T03:57:11.573Z,8.80
2023-04-16T03:58:13.976Z,8.80
2023-04-16T03:59:15.560Z,8.80
2023-04-16T04:00:18.566Z,8.80
2023-04-16T04:01:33.058Z,8.70
2023-04-16T04:02:34.596Z,8.70
2023-04-16T04:03:36.462Z,8.70
2023-04-16T04:04:38.150Z,8.70
2023-04-16T04:05:41.287Z,8.70
2023-04-16T04:06:47.082Z,8.70
2023-04-16T04:07:48.592Z,8.70
2023-04-16T04:08:50.410Z,8.70
2023-04-16T04:09:51.858Z,8.70
2023-04-16T04:10:53.326Z,8.80
2023-04-16T04:11:57.035Z,8.70
2023-04-16T04:12:58.856Z,8.80
2023-04-16T04:14:00.418Z,8.80
2023-04-16T04:15:01.882Z,8.80
2023-04-16T04:16:03.380Z,8.70
2023-04-16T04:17:04.863Z,8.80
2023-04-16T04:18:06.426Z,8.80
2023-04-16T04:19:08.017Z,8.70
2023-04-16T04:20:10.338Z,8.70
2023-04-16T04:21:12.757Z,8.70
2023-04-16T04:22:14.421Z,8.70
2023-04-16T04:23:16.151Z,8.80
2023-04-16T04:24:19.885Z,8.70
2023-04-16T04:25:21.380Z,8.70
2023-04-16T04:26:22.860Z,8.70
2023-04-16T04:27:25.665Z,8.70
2023-04-16T04:28:27.058Z,8.80
2023-04-16T04:29:29.196Z,8.70
2023-04-16T04:30:31.150Z,8.70
2023-04-16T04:31:32.748Z,8.70
2023-04-16T04:32:34.397Z,8.70
2023-04-16T04:33:36.059Z,8.70
2023-04-16T04:34:37.495Z,8.70
2023-04-16T04:35:41.389Z,8.80
2023-04-16T04:36:43.706Z,8.70
2023-04-16T04:37:46.823Z,8.70
2023-04-16T04:38:52.113Z,8.70
2023-04-16T04:39:54.666Z,8.80
2023-04-16T04:40:56.373Z,8.80
2023-04-16T04:41:59.456Z,8.80
2023-04-16T04:43:00.834Z,8.80
2023-04-16T04:44:02.395Z,8.80
2023-04-16T04:45:04.816Z,8.80
2023-04-16T04:46:08.154Z,8.90
2023-04-16T04:47:09.862Z,8.90
2023-04-16T04:48:11.300Z,8.90
2023-04-16T04:49:12.688Z,8.90
2023-04-16T04:50:14.072Z,8.80
2023-04-16T04:51:15.957Z,8.80
2023-04-16T04:52:20.453Z,8.80
2023-04-16T04:53:22.192Z,8.80
2023-04-16T04:54:23.664Z,8.80
2023-04-16T04:55:25.287Z,8.80
2023-04-16T04:56:26.997Z,8.80
2023-04-16T04:57:29.622Z,8.80
2023-04-16T04:58:31.543Z,8.80
2023-04-16T04:59:33.324Z,8.80
2023-04-16T05:00:36.669Z,8.80
2023-04-16T05:01:38.538Z,8.90
2023-04-16T05:02:40.448Z,8.90
2023-04-16T05:03:42.105Z,8.80
2023-04-16T05:04:43.709Z,8.80
2023-04-16T05:05:45.112Z,8.80
2023-04-16T05:06:46.729Z,8.70
2023-04-16T05:07:48.236Z,8.80
2023-04-16T05:08:49.877Z,8.70
2023-04-16T05:09:51.911Z,8.80
2023-04-16T05:10:53.264Z,8.80
2023-04-16T05:11:55.271Z,8.80
2023-04-16T05:12:57.150Z,8.70
2023-04-16T05:13:59.175Z,8.70
2023-04-16T05:15:00.572Z,8.70
2023-04-16T05:16:02.467Z,8.80
2023-04-16T05:17:04.169Z,8.80
2023-04-16T05:18:06.141Z,8.80
2023-04-16T05:19:08.201Z,8.70
2023-04-16T05:20:10.294Z,8.70
2023-04-16T05:21:11.723Z,8.70
2023-04-16T05:22:13.192Z,8.80
2023-04-16T05:23:15.639Z,8.80
2023-04-16T05:24:17.101Z,8.70
2023-04-16T05:25:18.826Z,8.70
2023-04-16T05:26:20.808Z,8.80
2023-04-16T05:27:22.228Z,8.70
2023-04-16T05:28:23.756Z,8.70
2023-04-16T05:29:25.322Z,8.80
2023-04-16T05:30:27.029Z,8.80
2023-04-16T05:31:28.626Z,8.80
2023-04-16T05:32:30.143Z,8.80
2023-04-16T05:33:31.858Z,8.80
2023-04-16T05:34:33.271Z,8.80
2023-04-16T05:35:35.140Z,8.80
2023-04-16T05:36:36.604Z,8.80
2023-04-16T05:37:38.072Z,8.80
2023-04-16T05:38:39.665Z,8.80
2023-04-16T05:39:41.143Z,8.80
2023-04-16T05:40:42.817Z,8.80
2023-04-16T05:41:44.197Z,8.80
2023-04-16T05:42:45.791Z,8.80
2023-04-16T05:43:47.194Z,8.80
2023-04-16T05:44:48.712Z,8.80
2023-04-16T05:45:50.411Z,8.80
2023-04-16T05:46:52.661Z,8.80
2023-04-16T05:47:54.164Z,8.70
2023-04-16T05:48:56.024Z,8.80
2023-04-16T05:49:57.492Z,8.80
2023-04-16T05:50:58.935Z,8.80
2023-04-16T05:52:00.419Z,8.80
2023-04-16T05:53:04.226Z,8.80
2023-04-16T05:54:05.662Z,8.80
2023-04-16T05:55:07.308Z,8.90
2023-04-16T05:56:09.318Z,8.90
2023-04-16T05:57:10.938Z,8.90
2023-04-16T05:58:12.358Z,8.90
2023-04-16T05:59:13.732Z,8.90
2023-04-16T06:00:15.392Z,8.90
2023-04-16T06:01:18.293Z,8.90
2023-04-16T06:02:20.564Z,8.90
2023-04-16T06:03:22.226Z,8.90
2023-04-16T06:04:23.949Z,8.90
2023-04-16T06:05:27.064Z,8.90
2023-04-16T06:06:28.819Z,8.90
2023-04-16T06:07:30.568Z,8.90
2023-04-16T06:08:32.475Z,8.90
2023-04-16T06:09:33.909Z,8.90
2023-04-16T06:10:36.030Z,8.90
2023-04-16T06:11:37.536Z,8.90
2023-04-16T06:12:39.294Z,8.90
2023-04-16T06:13:42.213Z,8.90
2023-04-16T06:14:44.045Z,8.90
2023-04-16T06:15:45.646Z,8.90
2023-04-16T06:16:47.199Z,8.90
2023-04-16T06:17:49.962Z,8.90
2023-04-16T06:18:51.404Z,8.90
2023-04-16T06:19:52.963Z,8.90
2023-04-16T06:20:54.414Z,8.90
2023-04-16T06:21:56.727Z,8.90
2023-04-16T06:22:58.353Z,9.00
2023-04-16T06:23:59.884Z,9.00
2023-04-16T06:25:01.369Z,8.90
2023-04-16T06:26:02.838Z,8.90
2023-04-16T06:27:04.732Z,8.90
2023-04-16T06:28:06.125Z,8.90
2023-04-16T06:29:07.765Z,8.90
2023-04-16T06:30:14.003Z,8.90
2023-04-16T06:31:15.998Z,8.90
2023-04-16T06:32:17.942Z,8.90
2023-04-16T06:33:19.720Z,8.90
2023-04-16T06:34:21.243Z,8.90
2023-04-16T06:35:23.787Z,8.70
2023-04-16T06:36:26.951Z,8.80
2023-04-16T06:37:28.354Z,8.80
2023-04-16T06:38:29.719Z,8.70
2023-04-16T06:39:31.583Z,8.70
2023-04-16T06:40:33.023Z,8.70
2023-04-16T06:41:34.672Z,8.70
2023-04-16T06:42:36.667Z,8.80
2023-04-16T06:43:38.341Z,8.80
2023-04-16T06:44:40.071Z,8.70
2023-04-16T06:45:41.629Z,8.80
2023-04-16T06:46:43.446Z,8.80
2023-04-16T06:47:45.255Z,8.80
2023-04-16T06:48:47.509Z,8.80
2023-04-16T06:49:49.257Z,8.80
2023-04-16T06:50:51.166Z,8.80
2023-04-16T06:51:52.769Z,8.80
2023-04-16T06:52:55.517Z,8.80
2023-04-16T06:53:56.924Z,8.90
2023-04-16T06:54:59.013Z,8.90
2023-04-16T06:56:00.561Z,8.80
2023-04-16T06:57:01.964Z,8.90
2023-04-16T06:58:04.044Z,8.90
2023-04-16T06:59:05.503Z,8.90
2023-04-16T07:00:07.564Z,8.90
2023-04-16T07:01:10.103Z,8.90
2023-04-16T07:02:12.003Z,8.90
2023-04-16T07:03:14.026Z,8.90
2023-04-16T07:04:16.327Z,8.80
2023-04-16T07:05:17.841Z,8.80
2023-04-16T07:06:19.217Z,8.80
2023-04-16T07:07:20.982Z,8.70
2023-04-16T07:08:22.383Z,8.80
2023-04-16T07:09:24.182Z,8.80
2023-04-16T07:10:25.713Z,8.70
2023-04-16T07:11:27.392Z,8.70
2023-04-16T07:12:28.870Z,8.70
2023-04-16T07:13:30.431Z,8.60
2023-04-16T07:14:31.813Z,8.70
2023-04-16T07:15:33.501Z,8.60
2023-04-16T07:16:35.061Z,8.70
2023-04-16T07:17:36.664Z,8.60
2023-04-16T07:18:38.310Z,8.50
2023-04-16T07:19:39.916Z,8.40
2023-04-16T07:20:41.388Z,8.40
2023-04-16T07:21:43.798Z,8.40
2023-04-16T07:22:45.414Z,8.30
2023-04-16T07:23:46.875Z,8.20
2023-04-16T07:24:48.332Z,8.20
2023-04-16T07:25:49.763Z,8.10
2023-04-16T07:26:51.685Z,8.10
2023-04-16T07:27:53.127Z,8.20
2023-04-16T07:28:54.629Z,8.20
2023-04-16T07:29:56.068Z,8.20
2023-04-16T07:30:58.519Z,8.10
2023-04-16T07:32:00.176Z,8.00
2023-04-16T07:33:03.898Z,8.00
2023-04-16T07:34:05.402Z,8.10
2023-04-16T07:35:07.598Z,8.10
2023-04-16T07:36:09.516Z,8.10
2023-04-16T07:37:11.283Z,8.20
2023-04-16T07:38:13.004Z,8.20
2023-04-16T07:39:14.664Z,8.30
2023-04-16T07:40:16.482Z,8.30
2023-04-16T07:41:18.130Z,8.30
2023-04-16T07:42:19.736Z,8.40
2023-04-16T07:43:21.222Z,8.40
2023-04-16T07:44:22.774Z,8.40
2023-04-16T07:45:24.502Z,8.40
2023-04-16T07:46:30.449Z,8.40
2023-04-16T07:47:37.901Z,8.40
2023-04-16T07:48:39.752Z,8.40
2023-04-16T07:49:41.193Z,8.40
2023-04-16T07:50:43.643Z,8.50
2023-04-16T07:51:45.687Z,8.40
2023-04-16T07:52:47.702Z,8.50
2023-04-16T07:53:49.185Z,8.50
2023-04-16T07:54:51.767Z,8.50
2023-04-16T07:55:53.350Z,8.50
2023-04-16T07:56:55.639Z,8.50
2023-04-16T07:57:57.018Z,8.50
2023-04-16T07:59:07.867Z,8.50
2023-04-16T08:00:16.477Z,8.50
2023-04-16T08:01:18.333Z,8.40
2023-04-16T08:02:20.312Z,8.40
2023-04-16T08:03:22.304Z,8.40
2023-04-16T08:04:27.370Z,8.30
2023-04-16T08:05:29.426Z,8.20
2023-04-16T08:06:31.247Z,8.20
2023-04-16T08:07:34.457Z,8.20
2023-04-16T08:08:36.223Z,8.20
2023-04-16T08:09:51.742Z,8.30
2023-04-16T08:10:55.933Z,8.30
2023-04-16T08:11:57.531Z,8.30
2023-04-16T08:13:01.501Z,8.30
2023-04-16T08:14:02.980Z,8.40
2023-04-16T08:15:05.291Z,8.40
2023-04-16T08:16:07.342Z,8.40
2023-04-16T08:17:09.060Z,8.40
2023-04-16T08:18:15.475Z,8.40
2023-04-16T08:19:17.245Z,8.50
2023-04-16T08:20:19.468Z,8.50
2023-04-16T08:21:21.746Z,8.50
2023-04-16T08:22:23.701Z,8.50
2023-04-16T08:23:25.261Z,8.50
2023-04-16T08:24:26.692Z,8.50
2023-04-16T08:25:28.230Z,8.60
2023-04-16T08:26:29.660Z,8.60
2023-04-16T08:27:31.092Z,8.50
2023-04-16T08:28:32.683Z,8.50
2023-04-16T08:29:34.190Z,8.50
2023-04-16T08:30:35.902Z,8.60
2023-04-16T08:31:37.973Z,8.40
2023-04-16T08:32:39.582Z,8.50
2023-04-16T08:33:41.242Z,8.50
2023-04-16T08:34:43.223Z,8.40
2023-04-16T08:35:44.639Z,8.40
2023-04-16T08:36:46.215Z,8.40
2023-04-16T08:37:47.681Z,8.30
2023-04-16T08:38:49.151Z,8.40
2023-04-16T08:39:50.961Z,8.40
2023-04-16T08:40:54.221Z,8.40
2023-04-16T08:41:58.353Z,8.40
2023-04-16T08:43:03.067Z,8.40
2023-04-16T08:44:18.316Z,8.50
2023-04-16T08:45:20.209Z,8.60
2023-04-16T08:46:24.973Z,8.60
2023-04-16T08:47:29.006Z,8.50
2023-04-16T08:48:33.940Z,8.50
2023-04-16T08:49:43.179Z,8.50
2023-04-16T08:50:46.679Z,8.50
2023-04-16T08:51:52.520Z,8.40
2023-04-16T08:52:59.667Z,8.40
2023-04-16T08:54:08.492Z,8.50
2023-04-16T08:55:17.499Z,8.50
2023-04-16T08:56:22.939Z,8.50
2023-04-16T08:57:30.791Z,8.50
2023-04-16T08:58:34.722Z,8.50
2023-04-16T08:59:37.033Z,8.50
2023-04-16T09:00:41.202Z,8.50
2023-04-16T09:01:42.990Z,8.60
2023-04-16T09:02:45.509Z,8.50
2023-04-16T09:03:48.356Z,8.50
2023-04-16T09:04:51.268Z,8.50
2023-04-16T09:05:55.625Z,8.40
2023-04-16T09:06:58.351Z,8.40
2023-04-16T09:08:00.213Z,8.40
2023-04-16T09:09:04.659Z,8.40
2023-04-16T09:10:08.004Z,8.40
2023-04-16T09:11:10.020Z,8.30
2023-04-16T09:12:11.805Z,8.20
2023-04-16T09:13:16.434Z,8.20
2023-04-16T09:14:18.285Z,8.20
2023-04-16T09:15:21.263Z,8.30
2023-04-16T09:16:25.015Z,8.20
2023-04-16T09:17:27.317Z,8.20
2023-04-16T09:18:28.818Z,8.20
2023-04-16T09:19:30.332Z,8.30
2023-04-16T09:20:32.034Z,8.40
2023-04-16T09:21:33.557Z,8.40
2023-04-16T09:22:35.929Z,8.40
2023-04-16T09:23:38.842Z,8.40
2023-04-16T09:24:41.839Z,8.40
2023-04-16T09:25:43.442Z,8.30
2023-04-16T09:26:45.947Z,8.30
2023-04-16T09:27:50.028Z,8.30
2023-04-16T09:28:51.711Z,8.20
2023-04-16T09:29:53.335Z,8.30
2023-04-16T09:31:12.708Z,8.30
2023-04-16T09:32:14.775Z,8.10
2023-04-16T09:33:24.461Z,8.10
2023-04-16T09:34:25.916Z,8.20
2023-04-16T09:35:27.826Z,8.20
2023-04-16T09:36:31.368Z,8.20
2023-04-16T09:37:32.959Z,8.20
2023-04-16T09:38:52.058Z,8.20
2023-04-16T09:40:01.272Z,8.20
2023-04-16T09:41:09.228Z,8.30
2023-04-16T09:42:11.513Z,8.30
2023-04-16T09:43:15.461Z,8.30
2023-04-16T09:44:16.916Z,8.20
2023-04-16T09:45:18.898Z,8.20
2023-04-16T09:46:20.606Z,8.10
2023-04-16T09:47:22.823Z,8.20
2023-04-16T09:48:33.631Z,8.10
2023-04-16T09:49:40.839Z,8.10
2023-04-16T09:50:51.454Z,8.00
2023-04-16T09:51:56.109Z,8.00
2023-04-16T09:53:02.692Z,8.10
2023-04-16T09:54:07.046Z,8.10
2023-04-16T09:55:08.767Z,8.10
2023-04-16T09:56:11.714Z,8.20
2023-04-16T09:57:13.441Z,8.20
2023-04-16T09:58:20.063Z,8.10
2023-04-16T09:59:23.013Z,8.10
2023-04-16T10:00:24.571Z,8.10
2023-04-16T10:01:26.303Z,8.20
2023-04-16T10:02:29.268Z,8.30
2023-04-16T10:03:35.672Z,8.30
2023-04-16T10:04:51.217Z,8.30
2023-04-16T10:05:53.966Z,8.40
2023-04-16T10:07:07.790Z,8.30
2023-04-16T10:08:14.216Z,8.40
2023-04-16T10:09:16.424Z,8.40
2023-04-16T10:10:18.657Z,8.40
2023-04-16T10:11:21.365Z,8.40
2023-04-16T10:12:22.848Z,8.40
2023-04-16T10:13:27.733Z,8.30
2023-04-16T10:14:29.159Z,8.30
2023-04-16T10:15:31.433Z,8.30
2023-04-16T10:16:33.727Z,8.20
2023-04-16T10:17:36.408Z,8.30
2023-04-16T10:18:40.472Z,8.30
2023-04-16T10:19:42.421Z,8.20
2023-04-16T10:20:45.378Z,8.20
2023-04-16T10:21:47.629Z,8.20
2023-04-16T10:22:49.861Z,8.30
2023-04-16T10:23:52.478Z,8.20
2023-04-16T10:24:54.760Z,8.20
2023-04-16T10:25:57.703Z,8.30
2023-04-16T10:26:59.966Z,8.30
2023-04-16T10:28:01.990Z,8.40
2023-04-16T10:29:05.415Z,8.40
2023-04-16T10:30:08.695Z,8.40
2023-04-16T10:31:10.537Z,8.40
2023-04-16T10:32:12.566Z,8.40
2023-04-16T10:33:14.971Z,8.40
2023-04-16T10:34:18.058Z,8.40
2023-04-16T10:35:21.485Z,8.40
2023-04-16T10:36:26.407Z,8.40
2023-04-16T10:37:31.637Z,8.40
2023-04-16T10:38:33.267Z,8.40
2023-04-16T10:39:39.097Z,8.30
2023-04-16T10:40:45.096Z,8.20
2023-04-16T10:41:47.045Z,8.20
2023-04-16T10:42:58.754Z,8.20
2023-04-16T10:44:09.947Z,8.10
2023-04-16T10:45:11.681Z,8.10
2023-04-16T10:46:19.983Z,8.10
2023-04-16T10:47:25.151Z,8.20
2023-04-16T10:48:30.930Z,8.20
2023-04-16T10:49:41.186Z,8.30
2023-04-16T10:50:42.789Z,8.30
2023-04-16T10:51:56.309Z,8.20
2023-04-16T10:53:19.472Z,8.30
2023-04-16T10:54:26.485Z,8.30
2023-04-16T10:55:28.096Z,8.30
2023-04-16T10:56:32.946Z,8.30
2023-04-16T10:57:34.404Z,8.40
2023-04-16T10:58:36.471Z,8.40
2023-04-16T10:59:39.948Z,8.40
2023-04-16T11:00:51.176Z,8.40
2023-04-16T11:01:55.696Z,8.40
2023-04-16T11:02:57.393Z,8.40
2023-04-16T11:04:22.956Z,8.40
2023-04-16T11:05:24.797Z,8.40
2023-04-16T11:06:27.706Z,8.50
2023-04-16T11:07:34.647Z,8.50
2023-04-16T11:08:44.267Z,8.50
2023-04-16T11:10:05.997Z,8.50
2023-04-16T11:11:08.893Z,8.40
2023-04-16T11:12:13.304Z,8.40
2023-04-16T11:13:16.720Z,8.40
2023-04-16T11:14:18.221Z,8.40
2023-04-16T11:15:19.644Z,8.40
2023-04-16T11:16:21.253Z,8.40
2023-04-16T11:17:23.318Z,8.40
2023-04-16T11:18:25.989Z,8.40
2023-04-16T11:19:27.644Z,8.50
2023-04-16T11:20:29.308Z,8.50
2023-04-16T11:21:31.820Z,8.60
2023-04-16T11:22:37.015Z,8.60
2023-04-16T11:23:52.239Z,8.60
2023-04-16T11:24:57.468Z,8.60
2023-04-16T11:25:59.388Z,8.70
2023-04-16T11:27:01.778Z,8.80
2023-04-16T11:28:03.587Z,8.80
2023-04-16T11:29:14.253Z,8.80
2023-04-16T11:30:15.851Z,8.90
2023-04-16T11:31:17.337Z,8.90
2023-04-16T11:32:22.640Z,8.90
2023-04-16T11:33:25.612Z,9.00
2023-04-16T11:34:27.234Z,9.00
2023-04-16T11:35:29.042Z,9.10
2023-04-16T11:36:52.135Z,9.20
2023-04-16T11:37:57.098Z,9.20
2023-04-16T11:39:03.692Z,9.20
2023-04-16T11:40:06.903Z,9.20
2023-04-16T11:41:08.951Z,9.40
2023-04-16T11:42:10.615Z,9.50
2023-04-16T11:43:16.829Z,9.60
2023-04-16T11:44:22.345Z,9.60
2023-04-16T11:45:24.068Z,9.70
2023-04-16T11:46:38.375Z,9.70
2023-04-16T11:47:51.987Z,9.80
2023-04-16T11:48:55.635Z,9.80
2023-04-16T11:49:57.996Z,9.90
2023-04-16T11:50:59.454Z,9.90
2023-04-16T11:52:01.140Z,9.90
2023-04-16T11:53:06.407Z,9.90
2023-04-16T11:54:11.148Z,9.80
2023-04-16T11:55:13.514Z,10.00
2023-04-16T11:56:16.057Z,10.10
2023-04-16T11:57:32.995Z,10.10
2023-04-16T11:58:34.476Z,10.10
2023-04-16T11:59:37.113Z,10.10
2023-04-16T12:00:59.873Z,10.00
2023-04-16T12:02:01.473Z,10.00
2023-04-16T12:03:03.459Z,10.00
2023-04-16T12:04:06.432Z,10.00
2023-04-16T12:05:32.002Z,10.00
2023-04-16T12:06:33.550Z,10.00
2023-04-16T12:07:46.184Z,10.00
2023-04-16T12:08:47.681Z,10.00
2023-04-16T12:09:49.534Z,10.10
2023-04-16T12:10:55.135Z,10.10
2023-04-16T12:11:56.702Z,10.00
2023-04-16T12:13:17.702Z,10.00
2023-04-16T12:14:19.503Z,10.10
2023-04-16T12:15:21.072Z,10.20
2023-04-16T12:16:25.169Z,10.20
2023-04-16T12:17:26.717Z,10.30
2023-04-16T12:18:28.346Z,10.30
2023-04-16T12:19:29.876Z,10.30
2023-04-16T12:20:41.619Z,10.30
2023-04-16T12:21:47.693Z,10.40
2023-04-16T12:22:49.717Z,10.40
2023-04-16T12:23:53.921Z,10.40
2023-04-16T12:25:03.941Z,10.30
2023-04-16T12:26:12.238Z,10.30
2023-04-16T12:27:13.680Z,10.30
2023-04-16T12:28:16.472Z,10.30
2023-04-16T12:29:30.081Z,10.40
2023-04-16T12:30:31.724Z,10.50
2023-04-16T12:31:39.323Z,10.50
2023-04-16T12:32:42.338Z,10.50
2023-04-16T12:33:43.893Z,10.50
2023-04-16T12:34:52.132Z,10.50
2023-04-16T12:35:53.682Z,10.60
2023-04-16T12:37:09.593Z,10.60
2023-04-16T12:38:12.285Z,10.60
2023-04-16T12:39:16.000Z,10.70
2023-04-16T12:40:17.477Z,10.70
2023-04-16T12:41:18.973Z,10.70
2023-04-16T12:42:21.428Z,10.70
2023-04-16T12:43:23.234Z,10.70
2023-04-16T12:44:27.800Z,10.70
2023-04-16T12:45:29.348Z,10.70
2023-04-16T12:46:30.847Z,10.70
2023-04-16T12:47:32.848Z,10.60
2023-04-16T12:48:34.685Z,10.60
2023-04-16T12:49:37.147Z,10.60
2023-04-16T12:50:39.816Z,10.60
2023-04-16T12:51:41.576Z,10.60
2023-04-16T12:52:43.385Z,10.60
2023-04-16T12:53:44.908Z,10.50
2023-04-16T12:54:46.610Z,10.50
2023-04-16T12:55:48.253Z,10.40
2023-04-16T12:56:49.700Z,10.40
2023-04-16T12:57:52.826Z,10.40
2023-04-16T12:58:54.315Z,10.40
2023-04-16T12:59:57.340Z,10.30
2023-04-16T13:00:59.812Z,10.30
2023-04-16T13:02:03.063Z,10.30
2023-04-16T13:03:04.964Z,10.30
2023-04-16T13:04:07.749Z,10.30
2023-04-16T13:05:10.137Z,10.30
2023-04-16T13:06:12.542Z,10.20
2023-04-16T13:07:14.012Z,10.20
2023-04-16T13:08:15.439Z,10.20
2023-04-16T13:09:18.017Z,10.10
2023-04-16T13:10:22.220Z,10.10
2023-04-16T13:11:23.921Z,10.10
2023-04-16T13:12:25.433Z,10.10
2023-04-16T13:13:26.943Z,10.10
2023-04-16T13:14:28.327Z,10.00
2023-04-16T13:15:29.700Z,10.00
2023-04-16T13:16:31.234Z,10.10
2023-04-16T13:17:32.626Z,10.00
2023-04-16T13:18:36.349Z,10.10
2023-04-16T13:19:37.773Z,10.00
2023-04-16T13:20:39.377Z,10.10
2023-04-16T13:21:41.258Z,10.10
2023-04-16T13:22:42.700Z,10.10
2023-04-16T13:23:44.217Z,10.10
2023-04-16T13:24:46.317Z,10.10
2023-04-16T13:25:50.477Z,10.10
2023-04-16T13:26:52.644Z,10.10
2023-04-16T13:27:54.040Z,10.10
2023-04-16T13:28:55.619Z,10.20
2023-04-16T13:29:57.338Z,10.20
2023-04-16T13:30:59.292Z,10.20
2023-04-16T13:32:00.703Z,10.20
2023-04-16T13:33:02.706Z,10.20
2023-04-16T13:34:04.765Z,10.20
2023-04-16T13:35:06.494Z,10.10
2023-04-16T13:36:08.359Z,10.10
2023-04-16T13:37:09.938Z,10.20
2023-04-16T13:38:12.253Z,10.20
2023-04-16T13:39:14.204Z,10.20
2023-04-16T13:40:16.245Z,10.20
2023-04-16T13:41:17.675Z,10.20
2023-04-16T13:42:19.112Z,10.30
2023-04-16T13:43:22.279Z,10.40
2023-04-16T13:44:23.734Z,10.40
2023-04-16T13:45:27.812Z,10.60
2023-04-16T13:46:29.526Z,10.60
2023-04-16T13:47:31.480Z,10.80
2023-04-16T13:48:33.359Z,10.90
2023-04-16T13:49:36.027Z,11.00
2023-04-16T13:50:38.208Z,11.10
2023-04-16T13:51:39.898Z,11.30
2023-04-16T13:52:41.369Z,11.40
2023-04-16T13:53:42.807Z,11.50
2023-04-16T13:54:44.290Z,11.60